sensor_id;sensor_type;location;lat;lon;timestamp;P1;durP1;ratioP1;P2;durP2;ratioP2
10945;SDS011;5525;42.648;23.368;2023-04-30T00:00:37;10.05;;;6.93;;
10945;SDS011;5525;42.648;23.368;2023-04-30T00:03:05;9.05;;;6.85;;
10945;SDS011;5525;42.648;23.368;2023-04-30T00:05:32;9.80;;;6.72;;
10945;SDS011;5525;42.648;23.368;2023-04-30T00:07:58;10.10;;;7.20;;
10945;SDS011;5525;42.648;23.368;2023-04-30T00:10:25;8.07;;;6.60;;
10945;SDS011;5525;42.648;23.368;2023-04-30T00:12:52;7.65;;;6.78;;
10945;SDS011;5525;42.648;23.368;2023-04-30T00:15:18;10.30;;;6.47;;
10945;SDS011;5525;42.648;23.368;2023-04-30T00:17:45;7.97;;;6.38;;
10945;SDS011;5525;42.648;23.368;2023-04-30T00:20:13;11.52;;;6.97;;
10945;SDS011;5525;42.648;23.368;2023-04-30T00:22:40;9.02;;;6.43;;
10945;SDS011;5525;42.648;23.368;2023-04-30T00:25:07;8.02;;;6.75;;
10945;SDS011;5525;42.648;23.368;2023-04-30T00:27:34;12.93;;;6.90;;
10945;SDS011;5525;42.648;23.368;2023-04-30T00:30:00;7.68;;;6.68;;
10945;SDS011;5525;42.648;23.368;2023-04-30T00:32:27;7.55;;;6.85;;
10945;SDS011;5525;42.648;23.368;2023-04-30T00:34:54;10.90;;;7.10;;
10945;SDS011;5525;42.648;23.368;2023-04-30T00:37:22;9.65;;;6.90;;
10945;SDS011;5525;42.648;23.368;2023-04-30T00:39:48;9.55;;;7.10;;
10945;SDS011;5525;42.648;23.368;2023-04-30T00:42:15;9.20;;;6.82;;
10945;SDS011;5525;42.648;23.368;2023-04-30T00:44:42;10.02;;;6.47;;
10945;SDS011;5525;42.648;23.368;2023-04-30T00:47:08;8.57;;;6.22;;
10945;SDS011;5525;42.648;23.368;2023-04-30T00:49:35;8.77;;;6.22;;
10945;SDS011;5525;42.648;23.368;2023-04-30T00:52:02;8.32;;;5.93;;
10945;SDS011;5525;42.648;23.368;2023-04-30T00:54:30;9.18;;;6.47;;
10945;SDS011;5525;42.648;23.368;2023-04-30T00:56:57;11.60;;;6.97;;
10945;SDS011;5525;42.648;23.368;2023-04-30T00:59:23;9.82;;;6.68;;
10945;SDS011;5525;42.648;23.368;2023-04-30T01:01:50;9.60;;;6.15;;
10945;SDS011;5525;42.648;23.368;2023-04-30T01:04:17;7.32;;;6.25;;
10945;SDS011;5525;42.648;23.368;2023-04-30T01:06:44;8.23;;;6.88;;
10945;SDS011;5525;42.648;23.368;2023-04-30T01:09:11;8.88;;;6.57;;
10945;SDS011;5525;42.648;23.368;2023-04-30T01:11:42;10.25;;;7.53;;
10945;SDS011;5525;42.648;23.368;2023-04-30T01:14:22;10.07;;;7.47;;
10945;SDS011;5525;42.648;23.368;2023-04-30T01:16:53;10.20;;;7.15;;
10945;SDS011;5525;42.648;23.368;2023-04-30T01:19:28;10.10;;;7.60;;
10945;SDS011;5525;42.648;23.368;2023-04-30T01:22:02;8.52;;;7.50;;
10945;SDS011;5525;42.648;23.368;2023-04-30T01:24:36;10.00;;;7.13;;
10945;SDS011;5525;42.648;23.368;2023-04-30T01:27:22;8.02;;;6.55;;
10945;SDS011;5525;42.648;23.368;2023-04-30T01:29:58;10.82;;;7.07;;
10945;SDS011;5525;42.648;23.368;2023-04-30T01:32:27;9.57;;;7.10;;
10945;SDS011;5525;42.648;23.368;2023-04-30T01:34:53;13.05;;;8.43;;
10945;SDS011;5525;42.648;23.368;2023-04-30T01:37:21;13.45;;;7.97;;
10945;SDS011;5525;42.648;23.368;2023-04-30T01:39:56;9.27;;;7.43;;
10945;SDS011;5525;42.648;23.368;2023-04-30T01:42:35;10.63;;;7.65;;
10945;SDS011;5525;42.648;23.368;2023-04-30T01:45:15;12.15;;;8.32;;
10945;SDS011;5525;42.648;23.368;2023-04-30T01:47:54;9.48;;;7.18;;
10945;SDS011;5525;42.648;23.368;2023-04-30T01:50:31;11.70;;;7.47;;
10945;SDS011;5525;42.648;23.368;2023-04-30T01:53:05;9.43;;;8.02;;
10945;SDS011;5525;42.648;23.368;2023-04-30T01:55:36;9.35;;;7.13;;
10945;SDS011;5525;42.648;23.368;2023-04-30T01:58:15;11.15;;;7.90;;
10945;SDS011;5525;42.648;23.368;2023-04-30T02:00:43;10.52;;;7.32;;
10945;SDS011;5525;42.648;23.368;2023-04-30T02:03:10;10.15;;;7.78;;
10945;SDS011;5525;42.648;23.368;2023-04-30T02:05:36;9.10;;;7.43;;
10945;SDS011;5525;42.648;23.368;2023-04-30T02:08:03;10.65;;;7.95;;
10945;SDS011;5525;42.648;23.368;2023-04-30T02:10:31;11.02;;;8.10;;
10945;SDS011;5525;42.648;23.368;2023-04-30T02:12:57;9.52;;;7.32;;
10945;SDS011;5525;42.648;23.368;2023-04-30T02:15:24;9.82;;;7.85;;
10945;SDS011;5525;42.648;23.368;2023-04-30T02:17:52;12.60;;;8.32;;
10945;SDS011;5525;42.648;23.368;2023-04-30T02:20:19;10.88;;;8.23;;
10945;SDS011;5525;42.648;23.368;2023-04-30T02:22:46;10.93;;;8.23;;
10945;SDS011;5525;42.648;23.368;2023-04-30T02:25:12;15.55;;;8.07;;
10945;SDS011;5525;42.648;23.368;2023-04-30T02:27:39;11.32;;;7.63;;
10945;SDS011;5525;42.648;23.368;2023-04-30T02:30:06;9.48;;;7.53;;
10945;SDS011;5525;42.648;23.368;2023-04-30T02:32:33;12.90;;;7.75;;
10945;SDS011;5525;42.648;23.368;2023-04-30T02:35:02;13.82;;;8.15;;
10945;SDS011;5525;42.648;23.368;2023-04-30T02:37:29;9.65;;;7.82;;
10945;SDS011;5525;42.648;23.368;2023-04-30T02:39:55;10.38;;;8.02;;
10945;SDS011;5525;42.648;23.368;2023-04-30T02:42:22;11.07;;;7.93;;
10945;SDS011;5525;42.648;23.368;2023-04-30T02:44:49;13.40;;;7.28;;
10945;SDS011;5525;42.648;23.368;2023-04-30T02:47:15;10.65;;;7.68;;
10945;SDS011;5525;42.648;23.368;2023-04-30T02:49:42;10.30;;;7.43;;
10945;SDS011;5525;42.648;23.368;2023-04-30T02:52:10;10.57;;;7.65;;
10945;SDS011;5525;42.648;23.368;2023-04-30T02:54:36;11.35;;;8.00;;
10945;SDS011;5525;42.648;23.368;2023-04-30T02:57:03;11.52;;;8.90;;
10945;SDS011;5525;42.648;23.368;2023-04-30T02:59:31;11.45;;;7.75;;
10945;SDS011;5525;42.648;23.368;2023-04-30T03:01:57;9.63;;;7.13;;
10945;SDS011;5525;42.648;23.368;2023-04-30T03:04:24;14.07;;;7.93;;
10945;SDS011;5525;42.648;23.368;2023-04-30T03:06:51;9.35;;;7.68;;
10945;SDS011;5525;42.648;23.368;2023-04-30T03:09:19;12.95;;;8.32;;
10945;SDS011;5525;42.648;23.368;2023-04-30T03:11:46;8.95;;;7.40;;
10945;SDS011;5525;42.648;23.368;2023-04-30T03:14:13;9.65;;;7.15;;
10945;SDS011;5525;42.648;23.368;2023-04-30T03:16:39;6.85;;;6.15;;
10945;SDS011;5525;42.648;23.368;2023-04-30T03:19:06;9.40;;;6.60;;
10945;SDS011;5525;42.648;23.368;2023-04-30T03:21:33;8.95;;;6.43;;
10945;SDS011;5525;42.648;23.368;2023-04-30T03:23:59;9.63;;;7.40;;
10945;SDS011;5525;42.648;23.368;2023-04-30T03:26:27;8.20;;;6.90;;
10945;SDS011;5525;42.648;23.368;2023-04-30T03:28:54;7.47;;;6.32;;
10945;SDS011;5525;42.648;23.368;2023-04-30T03:31:21;10.02;;;6.97;;
10945;SDS011;5525;42.648;23.368;2023-04-30T03:33:47;10.65;;;6.82;;
10945;SDS011;5525;42.648;23.368;2023-04-30T03:36:15;12.18;;;7.00;;
10945;SDS011;5525;42.648;23.368;2023-04-30T03:38:41;8.38;;;6.68;;
10945;SDS011;5525;42.648;23.368;2023-04-30T03:41:08;10.75;;;7.50;;
10945;SDS011;5525;42.648;23.368;2023-04-30T03:43:37;8.57;;;7.38;;
10945;SDS011;5525;42.648;23.368;2023-04-30T03:46:03;8.48;;;6.82;;
10945;SDS011;5525;42.648;23.368;2023-04-30T03:48:30;10.02;;;6.82;;
10945;SDS011;5525;42.648;23.368;2023-04-30T03:50:57;7.82;;;6.00;;
10945;SDS011;5525;42.648;23.368;2023-04-30T03:53:24;9.60;;;5.80;;
10945;SDS011;5525;42.648;23.368;2023-04-30T03:55:51;9.10;;;6.03;;
10945;SDS011;5525;42.648;23.368;2023-04-30T03:58:18;9.05;;;6.18;;
10945;SDS011;5525;42.648;23.368;2023-04-30T04:00:46;15.75;;;6.10;;
10945;SDS011;5525;42.648;23.368;2023-04-30T04:03:13;9.82;;;6.70;;
10945;SDS011;5525;42.648;23.368;2023-04-30T04:05:40;11.48;;;6.15;;
10945;SDS011;5525;42.648;23.368;2023-04-30T04:08:07;8.05;;;6.03;;
10945;SDS011;5525;42.648;23.368;2023-04-30T04:10:33;7.20;;;5.82;;
10945;SDS011;5525;42.648;23.368;2023-04-30T04:13:00;9.63;;;6.30;;
10945;SDS011;5525;42.648;23.368;2023-04-30T04:15:27;6.72;;;5.88;;
10945;SDS011;5525;42.648;23.368;2023-04-30T04:17:55;14.98;;;6.70;;
10945;SDS011;5525;42.648;23.368;2023-04-30T04:20:22;8.05;;;5.80;;
10945;SDS011;5525;42.648;23.368;2023-04-30T04:22:48;8.07;;;6.38;;
10945;SDS011;5525;42.648;23.368;2023-04-30T04:25:15;11.27;;;6.32;;
10945;SDS011;5525;42.648;23.368;2023-04-30T04:27:43;10.90;;;6.47;;
10945;SDS011;5525;42.648;23.368;2023-04-30T04:30:10;7.85;;;6.47;;
10945;SDS011;5525;42.648;23.368;2023-04-30T04:32:37;7.47;;;6.22;;
10945;SDS011;5525;42.648;23.368;2023-04-30T04:35:14;9.13;;;6.55;;
10945;SDS011;5525;42.648;23.368;2023-04-30T04:37:41;11.73;;;6.50;;
10945;SDS011;5525;42.648;23.368;2023-04-30T04:40:08;7.55;;;6.43;;
10945;SDS011;5525;42.648;23.368;2023-04-30T04:42:35;12.00;;;6.40;;
10945;SDS011;5525;42.648;23.368;2023-04-30T04:45:02;8.48;;;6.68;;
10945;SDS011;5525;42.648;23.368;2023-04-30T04:47:30;9.43;;;6.22;;
10945;SDS011;5525;42.648;23.368;2023-04-30T04:49:57;9.73;;;7.32;;
10945;SDS011;5525;42.648;23.368;2023-04-30T04:52:25;12.38;;;7.00;;
10945;SDS011;5525;42.648;23.368;2023-04-30T04:54:51;9.65;;;7.50;;
10945;SDS011;5525;42.648;23.368;2023-04-30T04:57:18;8.63;;;7.78;;
10945;SDS011;5525;42.648;23.368;2023-04-30T04:59:45;12.50;;;8.45;;
10945;SDS011;5525;42.648;23.368;2023-04-30T05:02:11;13.13;;;8.05;;
10945;SDS011;5525;42.648;23.368;2023-04-30T05:04:38;12.35;;;9.35;;
10945;SDS011;5525;42.648;23.368;2023-04-30T05:07:06;16.10;;;9.00;;
10945;SDS011;5525;42.648;23.368;2023-04-30T05:09:34;13.02;;;9.00;;
10945;SDS011;5525;42.648;23.368;2023-04-30T05:12:01;11.95;;;9.25;;
10945;SDS011;5525;42.648;23.368;2023-04-30T05:14:28;14.70;;;9.73;;
10945;SDS011;5525;42.648;23.368;2023-04-30T05:16:54;12.77;;;9.15;;
10945;SDS011;5525;42.648;23.368;2023-04-30T05:19:21;36.47;;;22.10;;
10945;SDS011;5525;42.648;23.368;2023-04-30T05:21:48;13.95;;;9.80;;
10945;SDS011;5525;42.648;23.368;2023-04-30T05:24:15;15.32;;;9.82;;
10945;SDS011;5525;42.648;23.368;2023-04-30T05:26:43;18.80;;;9.85;;
10945;SDS011;5525;42.648;23.368;2023-04-30T05:29:10;15.45;;;10.10;;
10945;SDS011;5525;42.648;23.368;2023-04-30T05:31:36;11.45;;;9.55;;
10945;SDS011;5525;42.648;23.368;2023-04-30T05:34:03;10.77;;;9.18;;
10945;SDS011;5525;42.648;23.368;2023-04-30T05:36:30;11.73;;;9.38;;
10945;SDS011;5525;42.648;23.368;2023-04-30T05:38:57;12.85;;;9.27;;
10945;SDS011;5525;42.648;23.368;2023-04-30T05:41:23;12.85;;;9.50;;
10945;SDS011;5525;42.648;23.368;2023-04-30T05:43:52;11.68;;;8.98;;
10945;SDS011;5525;42.648;23.368;2023-04-30T05:46:18;12.65;;;9.77;;
10945;SDS011;5525;42.648;23.368;2023-04-30T05:48:45;11.82;;;9.05;;
10945;SDS011;5525;42.648;23.368;2023-04-30T05:51:12;17.98;;;9.90;;
10945;SDS011;5525;42.648;23.368;2023-04-30T05:53:38;12.68;;;10.27;;
10945;SDS011;5525;42.648;23.368;2023-04-30T05:56:05;12.60;;;10.00;;
10945;SDS011;5525;42.648;23.368;2023-04-30T05:58:32;14.98;;;9.32;;
10945;SDS011;5525;42.648;23.368;2023-04-30T06:01:01;12.18;;;9.52;;
10945;SDS011;5525;42.648;23.368;2023-04-30T06:03:27;11.23;;;9.65;;
10945;SDS011;5525;42.648;23.368;2023-04-30T06:05:54;14.43;;;9.55;;
10945;SDS011;5525;42.648;23.368;2023-04-30T06:08:21;14.43;;;9.75;;
10945;SDS011;5525;42.648;23.368;2023-04-30T06:10:47;15.73;;;9.18;;
10945;SDS011;5525;42.648;23.368;2023-04-30T06:13:15;13.27;;;8.88;;
10945;SDS011;5525;42.648;23.368;2023-04-30T06:15:42;13.43;;;9.48;;
10945;SDS011;5525;42.648;23.368;2023-04-30T06:18:12;11.38;;;8.40;;
10945;SDS011;5525;42.648;23.368;2023-04-30T06:20:39;11.43;;;8.85;;
10945;SDS011;5525;42.648;23.368;2023-04-30T06:23:05;20.05;;;9.85;;
10945;SDS011;5525;42.648;23.368;2023-04-30T06:25:32;14.25;;;8.90;;
10945;SDS011;5525;42.648;23.368;2023-04-30T06:27:59;17.33;;;10.15;;
10945;SDS011;5525;42.648;23.368;2023-04-30T06:30:26;15.07;;;9.68;;
10945;SDS011;5525;42.648;23.368;2023-04-30T06:32:54;15.35;;;9.95;;
10945;SDS011;5525;42.648;23.368;2023-04-30T06:35:22;12.73;;;10.07;;
10945;SDS011;5525;42.648;23.368;2023-04-30T06:37:49;16.25;;;9.52;;
10945;SDS011;5525;42.648;23.368;2023-04-30T06:40:15;13.18;;;8.73;;
10945;SDS011;5525;42.648;23.368;2023-04-30T06:42:42;10.95;;;8.95;;
10945;SDS011;5525;42.648;23.368;2023-04-30T06:45:10;10.63;;;9.48;;
10945;SDS011;5525;42.648;23.368;2023-04-30T06:47:39;9.68;;;8.75;;
10945;SDS011;5525;42.648;23.368;2023-04-30T06:50:07;19.67;;;9.32;;
10945;SDS011;5525;42.648;23.368;2023-04-30T06:52:36;15.20;;;9.70;;
10945;SDS011;5525;42.648;23.368;2023-04-30T06:55:03;18.45;;;10.57;;
10945;SDS011;5525;42.648;23.368;2023-04-30T06:57:30;14.32;;;10.35;;
10945;SDS011;5525;42.648;23.368;2023-04-30T06:59:57;15.63;;;10.75;;
10945;SDS011;5525;42.648;23.368;2023-04-30T07:02:24;14.25;;;10.68;;
10945;SDS011;5525;42.648;23.368;2023-04-30T07:04:51;19.60;;;11.50;;
10945;SDS011;5525;42.648;23.368;2023-04-30T07:07:18;17.08;;;11.20;;
10945;SDS011;5525;42.648;23.368;2023-04-30T07:09:46;14.43;;;10.65;;
10945;SDS011;5525;42.648;23.368;2023-04-30T07:12:13;19.02;;;10.70;;
10945;SDS011;5525;42.648;23.368;2023-04-30T07:14:40;13.85;;;11.07;;
10945;SDS011;5525;42.648;23.368;2023-04-30T07:17:08;15.73;;;11.38;;
10945;SDS011;5525;42.648;23.368;2023-04-30T07:19:35;17.00;;;11.27;;
10945;SDS011;5525;42.648;23.368;2023-04-30T07:22:02;13.48;;;11.43;;
10945;SDS011;5525;42.648;23.368;2023-04-30T07:24:28;13.88;;;11.57;;
10945;SDS011;5525;42.648;23.368;2023-04-30T07:26:56;16.33;;;12.25;;
10945;SDS011;5525;42.648;23.368;2023-04-30T07:29:26;16.50;;;12.30;;
10945;SDS011;5525;42.648;23.368;2023-04-30T07:31:53;15.88;;;11.27;;
10945;SDS011;5525;42.648;23.368;2023-04-30T07:34:20;16.48;;;11.43;;
10945;SDS011;5525;42.648;23.368;2023-04-30T07:36:46;19.63;;;11.75;;
10945;SDS011;5525;42.648;23.368;2023-04-30T07:39:13;14.20;;;10.93;;
10945;SDS011;5525;42.648;23.368;2023-04-30T07:41:40;13.63;;;10.25;;
10945;SDS011;5525;42.648;23.368;2023-04-30T07:44:08;16.30;;;9.98;;
10945;SDS011;5525;42.648;23.368;2023-04-30T07:46:36;19.38;;;9.30;;
10945;SDS011;5525;42.648;23.368;2023-04-30T07:49:02;14.20;;;9.77;;
10945;SDS011;5525;42.648;23.368;2023-04-30T07:51:29;12.02;;;8.73;;
10945;SDS011;5525;42.648;23.368;2023-04-30T07:53:56;14.45;;;9.20;;
10945;SDS011;5525;42.648;23.368;2023-04-30T07:56:23;8.95;;;7.88;;
10945;SDS011;5525;42.648;23.368;2023-04-30T07:58:50;12.70;;;8.50;;
10945;SDS011;5525;42.648;23.368;2023-04-30T08:01:18;13.85;;;8.40;;
10945;SDS011;5525;42.648;23.368;2023-04-30T08:03:45;13.90;;;9.27;;
10945;SDS011;5525;42.648;23.368;2023-04-30T08:06:11;13.30;;;8.27;;
10945;SDS011;5525;42.648;23.368;2023-04-30T08:08:38;12.45;;;8.20;;
10945;SDS011;5525;42.648;23.368;2023-04-30T08:11:05;11.70;;;6.85;;
10945;SDS011;5525;42.648;23.368;2023-04-30T08:13:31;9.90;;;7.32;;
10945;SDS011;5525;42.648;23.368;2023-04-30T08:15:58;10.07;;;7.07;;
10945;SDS011;5525;42.648;23.368;2023-04-30T08:18:26;8.02;;;6.22;;
10945;SDS011;5525;42.648;23.368;2023-04-30T08:20:53;8.50;;;6.22;;
10945;SDS011;5525;42.648;23.368;2023-04-30T08:23:19;9.07;;;6.25;;
10945;SDS011;5525;42.648;23.368;2023-04-30T08:25:46;7.68;;;5.45;;
10945;SDS011;5525;42.648;23.368;2023-04-30T08:28:13;7.63;;;5.85;;
10945;SDS011;5525;42.648;23.368;2023-04-30T08:30:40;10.85;;;5.40;;
10945;SDS011;5525;42.648;23.368;2023-04-30T08:33:06;9.10;;;5.20;;
10945;SDS011;5525;42.648;23.368;2023-04-30T08:35:34;7.72;;;4.60;;
10945;SDS011;5525;42.648;23.368;2023-04-30T08:38:01;7.55;;;4.65;;
10945;SDS011;5525;42.648;23.368;2023-04-30T08:40:28;9.77;;;4.90;;
10945;SDS011;5525;42.648;23.368;2023-04-30T08:42:57;6.93;;;4.72;;
10945;SDS011;5525;42.648;23.368;2023-04-30T08:45:30;8.63;;;4.25;;
10945;SDS011;5525;42.648;23.368;2023-04-30T08:47:58;7.68;;;4.40;;
10945;SDS011;5525;42.648;23.368;2023-04-30T08:50:25;9.43;;;4.47;;
10945;SDS011;5525;42.648;23.368;2023-04-30T08:52:54;8.15;;;4.97;;
10945;SDS011;5525;42.648;23.368;2023-04-30T08:55:21;7.28;;;4.88;;
10945;SDS011;5525;42.648;23.368;2023-04-30T08:57:50;8.32;;;4.68;;
10945;SDS011;5525;42.648;23.368;2023-04-30T09:00:16;7.18;;;4.75;;
10945;SDS011;5525;42.648;23.368;2023-04-30T09:02:43;5.07;;;4.15;;
10945;SDS011;5525;42.648;23.368;2023-04-30T09:05:12;5.00;;;4.22;;
10945;SDS011;5525;42.648;23.368;2023-04-30T09:07:40;6.00;;;4.28;;
10945;SDS011;5525;42.648;23.368;2023-04-30T09:10:14;6.47;;;4.22;;
10945;SDS011;5525;42.648;23.368;2023-04-30T09:12:44;5.57;;;3.58;;
10945;SDS011;5525;42.648;23.368;2023-04-30T09:15:23;4.30;;;3.63;;
10945;SDS011;5525;42.648;23.368;2023-04-30T09:17:50;5.93;;;3.35;;
10945;SDS011;5525;42.648;23.368;2023-04-30T09:20:16;3.85;;;3.30;;
10945;SDS011;5525;42.648;23.368;2023-04-30T09:22:43;3.75;;;3.38;;
10945;SDS011;5525;42.648;23.368;2023-04-30T09:25:10;6.30;;;3.80;;
10945;SDS011;5525;42.648;23.368;2023-04-30T09:27:38;6.72;;;3.72;;
10945;SDS011;5525;42.648;23.368;2023-04-30T09:30:05;3.67;;;3.08;;
10945;SDS011;5525;42.648;23.368;2023-04-30T09:32:32;3.95;;;3.50;;
10945;SDS011;5525;42.648;23.368;2023-04-30T09:34:59;3.90;;;3.50;;
10945;SDS011;5525;42.648;23.368;2023-04-30T09:37:34;5.57;;;3.30;;
10945;SDS011;5525;42.648;23.368;2023-04-30T09:40:01;4.28;;;3.38;;
10945;SDS011;5525;42.648;23.368;2023-04-30T09:42:28;3.70;;;3.25;;
10945;SDS011;5525;42.648;23.368;2023-04-30T09:44:56;4.53;;;3.42;;
10945;SDS011;5525;42.648;23.368;2023-04-30T09:47:23;4.80;;;3.30;;
10945;SDS011;5525;42.648;23.368;2023-04-30T09:49:57;3.85;;;3.08;;
10945;SDS011;5525;42.648;23.368;2023-04-30T09:52:25;3.97;;;3.67;;
10945;SDS011;5525;42.648;23.368;2023-04-30T09:54:51;9.73;;;3.40;;
10945;SDS011;5525;42.648;23.368;2023-04-30T09:57:18;4.00;;;3.70;;
10945;SDS011;5525;42.648;23.368;2023-04-30T09:59:48;4.32;;;3.65;;
10945;SDS011;5525;42.648;23.368;2023-04-30T10:02:19;3.38;;;3.10;;
10945;SDS011;5525;42.648;23.368;2023-04-30T10:04:47;3.60;;;3.30;;
10945;SDS011;5525;42.648;23.368;2023-04-30T10:07:19;4.18;;;3.78;;
10945;SDS011;5525;42.648;23.368;2023-04-30T10:09:48;3.92;;;3.50;;
10945;SDS011;5525;42.648;23.368;2023-04-30T10:12:19;4.03;;;3.67;;
10945;SDS011;5525;42.648;23.368;2023-04-30T10:14:51;4.28;;;3.88;;
10945;SDS011;5525;42.648;23.368;2023-04-30T10:17:22;3.45;;;3.10;;
10945;SDS011;5525;42.648;23.368;2023-04-30T10:19:53;5.18;;;3.00;;
10945;SDS011;5525;42.648;23.368;2023-04-30T10:22:24;4.15;;;2.95;;
10945;SDS011;5525;42.648;23.368;2023-04-30T10:24:52;4.28;;;3.25;;
10945;SDS011;5525;42.648;23.368;2023-04-30T10:27:19;17.63;;;4.53;;
10945;SDS011;5525;42.648;23.368;2023-04-30T10:29:46;3.65;;;2.90;;
10945;SDS011;5525;42.648;23.368;2023-04-30T10:32:14;3.42;;;2.90;;
10945;SDS011;5525;42.648;23.368;2023-04-30T10:34:44;8.60;;;3.40;;
10945;SDS011;5525;42.648;23.368;2023-04-30T10:37:18;7.53;;;3.63;;
10945;SDS011;5525;42.648;23.368;2023-04-30T10:39:53;5.18;;;3.25;;
10945;SDS011;5525;42.648;23.368;2023-04-30T10:42:20;4.40;;;4.00;;
10945;SDS011;5525;42.648;23.368;2023-04-30T10:44:47;4.93;;;4.35;;
10945;SDS011;5525;42.648;23.368;2023-04-30T10:47:15;5.18;;;4.47;;
10945;SDS011;5525;42.648;23.368;2023-04-30T10:49:45;6.38;;;4.78;;
10945;SDS011;5525;42.648;23.368;2023-04-30T10:52:13;5.53;;;4.90;;
10945;SDS011;5525;42.648;23.368;2023-04-30T10:54:40;5.75;;;4.70;;
10945;SDS011;5525;42.648;23.368;2023-04-30T10:57:17;5.85;;;4.72;;
10945;SDS011;5525;42.648;23.368;2023-04-30T10:59:50;5.63;;;5.10;;
10945;SDS011;5525;42.648;23.368;2023-04-30T11:02:18;4.47;;;3.60;;
10945;SDS011;5525;42.648;23.368;2023-04-30T11:07:36;2.90;;;2.70;;
10945;SDS011;5525;42.648;23.368;2023-04-30T11:10:12;5.20;;;3.38;;
10945;SDS011;5525;42.648;23.368;2023-04-30T11:12:40;3.92;;;3.63;;
10945;SDS011;5525;42.648;23.368;2023-04-30T11:15:12;3.90;;;3.60;;
10945;SDS011;5525;42.648;23.368;2023-04-30T11:17:41;3.85;;;3.45;;
10945;SDS011;5525;42.648;23.368;2023-04-30T11:20:10;4.57;;;4.05;;
10945;SDS011;5525;42.648;23.368;2023-04-30T11:22:38;3.83;;;3.53;;
10945;SDS011;5525;42.648;23.368;2023-04-30T11:25:05;7.00;;;3.60;;
10945;SDS011;5525;42.648;23.368;2023-04-30T11:27:34;5.25;;;3.65;;
10945;SDS011;5525;42.648;23.368;2023-04-30T11:30:03;6.93;;;3.78;;
10945;SDS011;5525;42.648;23.368;2023-04-30T11:32:36;3.45;;;2.58;;
10945;SDS011;5525;42.648;23.368;2023-04-30T11:35:04;2.92;;;2.55;;
10945;SDS011;5525;42.648;23.368;2023-04-30T11:37:33;3.47;;;3.05;;
10945;SDS011;5525;42.648;23.368;2023-04-30T11:40:02;3.08;;;2.78;;
10945;SDS011;5525;42.648;23.368;2023-04-30T11:42:32;3.50;;;3.10;;
10945;SDS011;5525;42.648;23.368;2023-04-30T11:45:06;3.05;;;2.83;;
10945;SDS011;5525;42.648;23.368;2023-04-30T11:47:37;2.85;;;2.45;;
10945;SDS011;5525;42.648;23.368;2023-04-30T11:50:06;3.00;;;2.80;;
10945;SDS011;5525;42.648;23.368;2023-04-30T11:52:34;3.60;;;2.72;;
10945;SDS011;5525;42.648;23.368;2023-04-30T11:55:04;3.47;;;2.60;;
10945;SDS011;5525;42.648;23.368;2023-04-30T11:57:33;2.88;;;2.53;;
10945;SDS011;5525;42.648;23.368;2023-04-30T12:00:11;3.53;;;2.97;;
10945;SDS011;5525;42.648;23.368;2023-04-30T12:02:39;3.13;;;2.92;;
10945;SDS011;5525;42.648;23.368;2023-04-30T12:05:14;3.47;;;3.17;;
10945;SDS011;5525;42.648;23.368;2023-04-30T12:07:47;3.47;;;3.17;;
10945;SDS011;5525;42.648;23.368;2023-04-30T12:10:14;3.13;;;2.88;;
10945;SDS011;5525;42.648;23.368;2023-04-30T12:12:42;3.15;;;2.88;;
10945;SDS011;5525;42.648;23.368;2023-04-30T12:15:10;2.55;;;2.35;;
10945;SDS011;5525;42.648;23.368;2023-04-30T12:17:38;4.18;;;2.60;;
10945;SDS011;5525;42.648;23.368;2023-04-30T12:20:05;3.10;;;2.63;;
10945;SDS011;5525;42.648;23.368;2023-04-30T12:22:32;2.60;;;2.40;;
10945;SDS011;5525;42.648;23.368;2023-04-30T12:25:04;3.67;;;2.80;;
10945;SDS011;5525;42.648;23.368;2023-04-30T12:27:33;3.53;;;2.50;;
10945;SDS011;5525;42.648;23.368;2023-04-30T12:30:01;2.60;;;2.40;;
10945;SDS011;5525;42.648;23.368;2023-04-30T12:32:35;3.42;;;2.80;;
10945;SDS011;5525;42.648;23.368;2023-04-30T12:35:03;4.68;;;2.90;;
10945;SDS011;5525;42.648;23.368;2023-04-30T12:37:30;4.22;;;3.30;;
10945;SDS011;5525;42.648;23.368;2023-04-30T12:39:57;3.50;;;3.20;;
10945;SDS011;5525;42.648;23.368;2023-04-30T12:42:25;4.63;;;3.30;;
10945;SDS011;5525;42.648;23.368;2023-04-30T12:44:58;6.82;;;3.50;;
10945;SDS011;5525;42.648;23.368;2023-04-30T12:47:25;3.85;;;2.92;;
10945;SDS011;5525;42.648;23.368;2023-04-30T12:49:52;3.00;;;2.60;;
10945;SDS011;5525;42.648;23.368;2023-04-30T12:52:21;3.40;;;2.97;;
10945;SDS011;5525;42.648;23.368;2023-04-30T12:54:50;5.00;;;3.15;;
10945;SDS011;5525;42.648;23.368;2023-04-30T12:57:17;4.18;;;3.13;;
10945;SDS011;5525;42.648;23.368;2023-04-30T12:59:56;3.72;;;3.42;;
10945;SDS011;5525;42.648;23.368;2023-04-30T13:02:24;3.38;;;3.13;;
10945;SDS011;5525;42.648;23.368;2023-04-30T13:04:53;3.13;;;2.92;;
10945;SDS011;5525;42.648;23.368;2023-04-30T13:07:20;3.42;;;3.13;;
10945;SDS011;5525;42.648;23.368;2023-04-30T13:09:47;3.80;;;2.83;;
10945;SDS011;5525;42.648;23.368;2023-04-30T13:12:14;2.92;;;2.72;;
10945;SDS011;5525;42.648;23.368;2023-04-30T13:14:41;3.65;;;2.50;;
10945;SDS011;5525;42.648;23.368;2023-04-30T13:17:09;3.13;;;2.90;;
10945;SDS011;5525;42.648;23.368;2023-04-30T13:19:37;3.60;;;3.05;;
10945;SDS011;5525;42.648;23.368;2023-04-30T13:22:04;3.63;;;2.92;;
10945;SDS011;5525;42.648;23.368;2023-04-30T13:24:31;3.17;;;2.88;;
10945;SDS011;5525;42.648;23.368;2023-04-30T13:26:58;3.53;;;3.25;;
10945;SDS011;5525;42.648;23.368;2023-04-30T13:29:24;3.65;;;2.83;;
10945;SDS011;5525;42.648;23.368;2023-04-30T13:31:51;3.08;;;2.78;;
10945;SDS011;5525;42.648;23.368;2023-04-30T13:34:19;3.45;;;2.88;;
10945;SDS011;5525;42.648;23.368;2023-04-30T13:36:46;2.85;;;2.65;;
10945;SDS011;5525;42.648;23.368;2023-04-30T13:39:13;3.10;;;2.67;;
10945;SDS011;5525;42.648;23.368;2023-04-30T13:41:39;3.58;;;2.90;;
10945;SDS011;5525;42.648;23.368;2023-04-30T13:44:06;2.80;;;2.60;;
10945;SDS011;5525;42.648;23.368;2023-04-30T13:46:33;5.53;;;2.90;;
10945;SDS011;5525;42.648;23.368;2023-04-30T13:49:00;12.30;;;3.42;;
10945;SDS011;5525;42.648;23.368;2023-04-30T13:51:28;5.13;;;3.10;;
10945;SDS011;5525;42.648;23.368;2023-04-30T13:53:54;2.90;;;2.55;;
10945;SDS011;5525;42.648;23.368;2023-04-30T13:56:21;3.25;;;2.53;;
10945;SDS011;5525;42.648;23.368;2023-04-30T13:58:48;9.20;;;2.88;;
10945;SDS011;5525;42.648;23.368;2023-04-30T14:01:14;3.00;;;2.70;;
10945;SDS011;5525;42.648;23.368;2023-04-30T14:03:41;3.25;;;2.80;;
10945;SDS011;5525;42.648;23.368;2023-04-30T14:06:08;13.57;;;4.25;;
10945;SDS011;5525;42.648;23.368;2023-04-30T14:08:36;5.63;;;3.00;;
10945;SDS011;5525;42.648;23.368;2023-04-30T14:11:03;7.15;;;3.13;;
10945;SDS011;5525;42.648;23.368;2023-04-30T14:13:29;4.03;;;2.80;;
10945;SDS011;5525;42.648;23.368;2023-04-30T14:15:56;4.68;;;2.92;;
10945;SDS011;5525;42.648;23.368;2023-04-30T14:18:23;3.35;;;3.03;;
10945;SDS011;5525;42.648;23.368;2023-04-30T14:20:50;5.05;;;3.17;;
10945;SDS011;5525;42.648;23.368;2023-04-30T14:23:17;3.25;;;2.95;;
10945;SDS011;5525;42.648;23.368;2023-04-30T14:25:45;2.67;;;2.47;;
10945;SDS011;5525;42.648;23.368;2023-04-30T14:28:12;3.33;;;2.83;;
10945;SDS011;5525;42.648;23.368;2023-04-30T14:30:38;3.42;;;2.70;;
10945;SDS011;5525;42.648;23.368;2023-04-30T14:33:05;3.65;;;3.28;;
10945;SDS011;5525;42.648;23.368;2023-04-30T14:35:35;4.07;;;2.50;;
10945;SDS011;5525;42.648;23.368;2023-04-30T14:38:01;3.88;;;2.90;;
10945;SDS011;5525;42.648;23.368;2023-04-30T14:40:28;2.85;;;2.45;;
10945;SDS011;5525;42.648;23.368;2023-04-30T14:42:56;2.97;;;2.78;;
10945;SDS011;5525;42.648;23.368;2023-04-30T14:45:23;4.47;;;2.88;;
10945;SDS011;5525;42.648;23.368;2023-04-30T14:47:52;8.35;;;2.75;;